Terminal Aerodrome Forecast
Issued by NWS Omaha/Valley, NE

Home | Current Version | Previous Version | Text Only | Print | Product List | Glossary Off
Versions: 1 2 3 4 5 6 7 8 9 10 11 12 13 14 15 16 17 18 19 20 21 22 23 24 25 26 27 28 29 30 31 32 33 34 35 36 37 38 39 40 41 42 43 44 45 46 47 48 49 50

576
FTUS43 KOAX 241622 AAC
TAFOFK
TAF AMD
KOFK 241622Z 2416/2512 36013KT P6SM VCSH OVC008
     FM242000 36015KT 5SM -RA OVC008
     FM250600 36014KT P6SM OVC003=

USA.gov is the U.S. government's official web portal to all federal, state and local government web resources and services.